Flight Track Log - Related Links

Times and Time Zones

All times are in EDT time to prevent confusion due to time zone crossing. See the N724HS flight status page for this flight to view local times or setup timezone preferences in your user account.

Time Position Orientation Groundspeed Altitude Reporting Facility
EDT Latitude Longitude Course Direction KTS MPH feet Rate Location/Type
Fri 09:55:16 AM 26.0756 -80.1381 106° East 142 163 400  Level Miami Center
Fri 09:56:31 AM 26.0603 -80.0792 106° East 167 192 1,400 1,007 Climbing Miami Center
Fri 09:57:33 AM 26.0467 -80.0217 105° East 187 215 2,700 1,306 Climbing Miami Center
Fri 09:58:35 AM 26.0361 -79.9664 102° East 186 214 4,100 1,317 Climbing Miami Center
Fri 09:59:36 AM 26.0250 -79.9114 103° East 183 211 5,400 1,268 Climbing Miami Center
Fri 10:00:38 AM 26.0222 -79.8531 93° East 185 213 6,700 1,210 Climbing Miami Center
Fri 10:01:40 AM 26.0133 -79.7925 99° East 190 219 7,900 1,258 Climbing Miami Center
Fri 10:02:42 AM 26.0081 -79.7194 95° East 202 232 9,300 1,210 Climbing Miami Center
Fri 10:03:44 AM 26.0017 -79.6578 97° East 201 231 10,400 871 Climbing Miami Center
Fri 10:04:46 AM 25.9956 -79.5928 96° East 208 239 11,100 242 Climbing Miami Center
Fri 10:05:48 AM 25.9889 -79.5175 96° East 244 281 10,900 -97 Descending Miami Center
Fri 10:06:50 AM 25.9797 -79.4389 97° East 253 291 10,900  Level Miami Center
Fri 10:07:51 AM 25.9725 -79.3583 96° East 261 300 10,900  Level Miami Center
Fri 10:08:53 AM 25.9611 -79.2775 99° East 262 302 10,900  Level Miami Center
Fri 10:09:55 AM 25.9481 -79.1808 99° East 263 303 10,900  Level Miami Center
Fri 10:10:57 AM 25.9264 -79.1064 108° East 256 295 10,900  Level Miami Center
Fri 10:11:59 AM 25.8831 -79.0439 128° Southeast 255 293 10,900 -48 Level Miami Center
Fri 10:13:01 AM 25.8411 -78.9806 126° Southeast 255 293 10,800 -290 Descending Miami Center
Fri 10:14:03 AM 25.7981 -78.9167 127° Southeast 255 293 10,300 -532 Descending Miami Center
Fri 10:15:05 AM 25.7553 -78.8511 126° Southeast 256 295 9,700 -581 Descending Miami Center
Fri 10:17:00 AM 25.6784 -78.7490 130° Southeast  Level FlightAware Approximate
Fri 10:24:00 AM 25.4180 -78.3593 123° Southeast  Level FlightAware Approximate
Fri 10:25:00 AM 25.3840 -78.3012 123° Southeast  Level FlightAware Approximate
Fri 10:26:00 AM 25.3454 -78.2468 128° Southeast  Level FlightAware Approximate
Fri 10:27:00 AM 25.3066 -78.1925 128° Southeast  Level FlightAware Approximate
Fri 10:28:00 AM 25.2560 -78.1587 146° Southeast  Level FlightAware Approximate
Fri 10:29:00 AM 25.2043 -78.1199 146° Southeast  Level FlightAware Approximate
Fri 10:30:00 AM 25.1460 -78.0951 160° South  Level FlightAware Approximate
Fri 10:31:00 AM 25.0907 -78.0639 146° Southeast  Level FlightAware Approximate
Fri 10:32:00 AM 25.0538 -78.0490 146° Southeast  Level Estimated
Fri 10:33:00 AM 25.0538 -78.0490 105° East  Level Estimated
Fri 10:34:00 AM 25.0538 -78.0490 146° Southeast  Level Estimated
Fri 10:35:00 AM 25.0538 -78.0490 105° East  Level Estimated
Fri 10:36:00 AM 25.0538 -78.0490 146° Southeast  Level Estimated
Fri 10:37:00 AM 25.0538 -78.0490 105° East  Level Estimated
Fri 10:38:00 AM 25.0538 -78.0490 146° Southeast  Level Estimated
Fri 10:39:00 AM 25.0538 -78.0490 105° East  Level Estimated
Fri 10:40:00 AM 25.0538 -78.0490 146° Southeast  Level Estimated
Fri 10:41:00 AM 25.0538 -78.0490 105° East  Level Estimated
Fri 10:42:00 AM 25.0538 -78.0490 146° Southeast  Level Estimated
Fri 10:43:00 AM 25.0538 -78.0490 105° East  Level Estimated
Fri 10:44:00 AM 25.0538 -78.0490 146° Southeast  Level Estimated
Fri 10:45:00 AM 25.0538 -78.0490 105° East  Level Estimated
Fri 10:46:00 AM 25.0538 -78.0490 146° Southeast  Level Estimated
Fri 10:47:00 AM 25.0538 -78.0490 105° East  Level Estimated

Login

Don't have an account? Register now (free) for customized features, flight alerts, and more!